Time;durP1;ratioP1;P1;durP2;ratioP2;P2;SDS_P1;SDS_P2;PMS_P1;PMS_P2;Temp;Humidity;BMP_temperature;BMP_pressure;BME280_temperature;BME280_humidity;BME280_pressure;Samples;Min_cycle;Max_cycle;Signal;HPM_P1;HPM_P2
2022/05/07 12:52:32;;;;;;;5.25;2.35;;;22.50;97.20;;;;;;4110557;23;20240;-71
2022/05/07 12:54:59;;;;;;;4.03;2.13;;;22.70;96.20;;;;;;4947232;28;20241;-71
2022/05/07 12:57:27;;;;;;;3.50;2.10;;;22.70;96.60;;;;;;4945263;29;20208;-71
2022/05/07 12:59:53;;;;;;;3.05;1.73;;;22.70;95.90;;;;;;4957117;28;20247;-71
2022/05/07 13:02:20;;;;;;;3.33;2.03;;;22.90;95.40;;;;;;4956467;28;20218;-71
2022/05/07 13:04:47;;;;;;;3.88;1.88;;;22.80;96.10;;;;;;4957666;28;20212;-72
2022/05/07 13:07:14;;;;;;;3.40;1.80;;;22.80;96.90;;;;;;4957498;28;20212;-72
2022/05/07 13:09:42;;;;;;;4.82;2.50;;;22.80;97.70;;;;;;4946251;28;20228;-71
2022/05/07 13:12:13;;;;;;;4.35;2.33;;;22.70;97.60;;;;;;4956857;28;20683;-72
2022/05/07 13:14:40;;;;;;;5.57;2.25;;;22.60;98.20;;;;;;4957348;28;20232;-71
2022/05/07 13:17:07;;;;;;;4.05;2.28;;;22.50;98.30;;;;;;4953035;28;20204;-71
2022/05/07 13:19:34;;;;;;;4.28;2.28;;;22.60;98.00;;;;;;4955232;28;20234;-72
2022/05/07 13:22:01;;;;;;;3.70;2.10;;;22.60;98.00;;;;;;4956242;28;20208;-71
2022/05/07 13:24:29;;;;;;;4.78;3.25;;;22.50;97.70;;;;;;4956954;28;20213;-71
2022/05/07 13:26:57;;;;;;;6.53;2.42;;;22.30;97.80;;;;;;4957040;28;20221;-72
2022/05/07 13:29:24;;;;;;;3.58;1.75;;;22.30;98.20;;;;;;4956768;28;20563;-72
2022/05/07 13:31:51;;;;;;;5.28;2.28;;;22.20;98.20;;;;;;4957458;28;20208;-72
2022/05/07 13:34:17;;;;;;;2.40;1.60;;;22.10;98.20;;;;;;4956894;28;20585;-72
2022/05/07 13:36:44;;;;;;;2.92;2.10;;;22.10;98.20;;;;;;4942673;28;20213;-72
2022/05/07 13:39:11;;;;;;;4.40;2.08;;;22.10;98.20;;;;;;4935953;29;20767;-71
2022/05/07 13:41:38;;;;;;;3.10;2.10;;;22.10;98.30;;;;;;4954489;28;20291;-72
2022/05/07 13:44:10;;;;;;;3.45;2.05;;;22.20;98.10;;;;;;4956515;28;20218;-72
2022/05/07 13:46:37;;;;;;;5.22;2.65;;;22.50;98.10;;;;;;4956353;28;20572;-72
2022/05/07 13:49:04;;;;;;;3.90;2.10;;;22.50;98.00;;;;;;4956331;28;20243;-74
2022/05/07 13:51:31;;;;;;;4.78;2.33;;;22.30;98.40;;;;;;4944627;28;20678;-72
2022/05/07 13:53:58;;;;;;;4.43;2.22;;;22.20;98.50;;;;;;4937260;29;20213;-71
2022/05/07 13:56:26;;;;;;;3.67;2.50;;;22.20;99.00;;;;;;4937229;29;20240;-72
2022/05/07 13:58:53;;;;;;;4.55;2.83;;;22.20;98.50;;;;;;4937604;29;20243;-72
2022/05/07 14:01:23;;;;;;;4.05;2.30;;;22.30;98.40;;;;;;4937611;29;20213;-72
2022/05/07 14:03:50;;;;;;;3.60;2.58;;;22.20;98.70;;;;;;4937461;29;20268;-71
2022/05/07 14:06:19;;;;;;;5.97;2.60;;;22.10;98.00;;;;;;4937275;29;20204;-72
2022/05/07 14:08:46;;;;;;;3.28;1.90;;;22.20;98.30;;;;;;4948343;29;20201;-71
2022/05/07 14:11:14;;;;;;;4.13;1.80;;;22.30;98.40;;;;;;4936898;29;20243;-71
2022/05/07 14:13:41;;;;;;;6.47;2.10;;;22.50;97.90;;;;;;4937241;29;20247;-72
2022/05/07 14:16:08;;;;;;;3.92;2.05;;;22.70;97.20;;;;;;4936800;29;20247;-72
2022/05/07 14:18:36;;;;;;;3.70;2.10;;;22.90;96.40;;;;;;4937098;29;20209;-72
2022/05/07 14:21:03;;;;;;;4.13;2.08;;;23.00;96.00;;;;;;4937037;29;20209;-72
2022/05/07 14:23:30;;;;;;;3.22;1.73;;;23.20;95.50;;;;;;4936901;29;20213;-72
2022/05/07 14:25:57;;;;;;;3.08;1.83;;;23.20;96.40;;;;;;4937709;29;20223;-72
2022/05/07 14:28:24;;;;;;;4.07;2.20;;;23.20;96.70;;;;;;4955849;28;20210;-72
2022/05/07 14:30:50;;;;;;;2.92;1.98;;;23.30;96.60;;;;;;4955432;28;20231;-72
2022/05/07 14:33:18;;;;;;;5.15;2.83;;;23.40;96.70;;;;;;4954858;28;20566;-71
2022/05/07 14:35:48;;;;;;;5.15;2.65;;;23.30;97.00;;;;;;4955564;28;20246;-73
2022/05/07 14:38:15;;;;;;;4.90;2.38;;;23.10;97.10;;;;;;4955459;28;20240;-74
2022/05/07 14:40:43;;;;;;;5.82;2.45;;;22.90;96.90;;;;;;4955741;28;20315;-72
2022/05/07 14:43:10;;;;;;;3.30;1.83;;;22.70;96.90;;;;;;4941861;28;20233;-72
2022/05/07 14:45:37;;;;;;;2.85;1.98;;;22.50;97.60;;;;;;4936314;29;20215;-72
2022/05/07 14:48:04;;;;;;;3.08;1.80;;;22.50;97.90;;;;;;4936251;29;20209;-71
2022/05/07 14:50:32;;;;;;;5.30;2.63;;;22.50;97.70;;;;;;4936230;29;20658;-72
2022/05/07 14:53:00;;;;;;;3.63;2.40;;;22.40;97.60;;;;;;4936066;29;20671;-72
2022/05/07 14:55:27;;;;;;;3.80;2.40;;;22.30;98.20;;;;;;4936349;29;20236;-72
2022/05/07 14:57:54;;;;;;;6.35;2.67;;;22.20;97.80;;;;;;4936211;29;20205;-72
2022/05/07 15:00:20;;;;;;;3.92;2.60;;;22.10;97.70;;;;;;4935587;29;20228;-72
2022/05/07 15:02:48;;;;;;;3.55;1.92;;;21.50;98.20;;;;;;4936012;29;20219;-72
2022/05/07 15:05:16;;;;;;;3.85;2.28;;;21.50;98.70;;;;;;4936212;29;20260;-72
2022/05/07 15:07:43;;;;;;;5.80;2.45;;;21.50;98.10;;;;;;4936466;29;20209;-72
2022/05/07 15:12:56;;;;;;;4.28;2.45;;;21.30;98.10;;;;;;4936085;29;20559;-72
2022/05/07 15:15:23;;;;;;;5.18;2.17;;;21.40;98.10;;;;;;4935459;28;20235;-71
2022/05/07 15:17:50;;;;;;;3.33;2.25;;;21.40;98.20;;;;;;4935942;29;20217;-71
2022/05/07 15:20:17;;;;;;;4.20;2.42;;;21.40;98.50;;;;;;4935780;29;20236;-71
2022/05/07 15:22:45;;;;;;;4.20;2.20;;;21.40;98.00;;;;;;4936102;29;20216;-71
2022/05/07 15:25:15;;;;;;;3.72;1.98;;;21.40;98.10;;;;;;4935765;29;20564;-71
2022/05/07 15:27:43;;;;;;;2.88;1.88;;;21.50;97.70;;;;;;4935939;29;20296;-71
2022/05/07 15:30:10;;;;;;;4.45;2.30;;;21.40;98.00;;;;;;4936001;29;20557;-73
2022/05/07 15:38:06;;;;;;;4.20;2.13;;;21.60;97.70;;;;;;4936101;29;20208;-72
2022/05/07 15:40:34;;;;;;;3.88;1.90;;;21.60;97.60;;;;;;4935758;29;20236;-71
2022/05/07 15:43:01;;;;;;;3.75;1.65;;;21.60;97.70;;;;;;4936043;29;20216;-71
2022/05/07 15:45:29;;;;;;;4.05;1.95;;;21.60;97.60;;;;;;4936043;29;20219;-72
2022/05/07 15:47:55;;;;;;;3.53;1.95;;;21.80;97.20;;;;;;4935760;29;20200;-71
2022/05/07 15:50:23;;;;;;;3.22;1.95;;;21.70;97.40;;;;;;4935569;29;20233;-72
2022/05/07 15:52:51;;;;;;;4.95;1.88;;;21.80;97.30;;;;;;4935744;29;20369;-71
2022/05/07 15:55:18;;;;;;;5.00;2.05;;;22.00;97.30;;;;;;4935432;29;20232;-71
2022/05/07 15:57:46;;;;;;;7.70;2.30;;;22.00;97.50;;;;;;4935832;29;20208;-71
2022/05/07 16:00:14;;;;;;;4.20;2.05;;;21.80;98.00;;;;;;4935549;29;20233;-70
2022/05/07 16:02:41;;;;;;;4.68;1.80;;;21.60;98.10;;;;;;4935699;29;20213;-71
2022/05/07 16:05:09;;;;;;;3.25;1.92;;;21.60;98.80;;;;;;4935372;29;20726;-71
2022/05/07 16:07:38;;;;;;;3.45;2.17;;;21.60;98.50;;;;;;4935623;29;20662;-71
2022/05/07 16:10:05;;;;;;;3.05;2.20;;;21.50;98.60;;;;;;4935240;29;20228;-72
2022/05/07 16:12:32;;;;;;;3.55;2.15;;;21.50;98.50;;;;;;4936183;29;20205;-71
2022/05/07 16:15:01;;;;;;;7.15;2.67;;;21.30;98.90;;;;;;4938699;28;20909;-71
2022/05/07 16:17:28;;;;;;;3.55;2.13;;;21.00;98.80;;;;;;4954194;28;20267;-71
2022/05/07 16:19:55;;;;;;;3.25;2.00;;;20.90;98.80;;;;;;4953057;28;20236;-72
2022/05/07 16:25:07;;;;;;;3.75;2.20;;;20.70;99.80;;;;;;4951030;29;20207;-73
2022/05/07 16:27:34;;;;;;;3.60;2.05;;;20.60;99.90;;;;;;4953704;28;20216;-72
2022/05/07 16:30:03;;;;;;;4.70;2.70;;;20.50;99.90;;;;;;4953542;28;20238;-72
2022/05/07 16:32:30;;;;;;;3.47;2.47;;;20.60;99.90;;;;;;4944044;28;20205;-71
2022/05/07 16:34:57;;;;;;;5.47;2.67;;;20.50;99.90;;;;;;4935051;29;20215;-72
2022/05/07 16:37:24;;;;;;;5.13;2.63;;;20.50;99.90;;;;;;4934980;29;20698;-71
2022/05/07 16:39:51;;;;;;;3.95;2.40;;;20.50;99.90;;;;;;4934796;29;20703;-71
2022/05/07 16:42:17;;;;;;;4.95;2.30;;;20.50;99.90;;;;;;4935135;29;20660;-71
2022/05/07 16:44:44;;;;;;;6.13;2.60;;;20.50;99.90;;;;;;4934994;29;20233;-71
2022/05/07 16:47:12;;;;;;;5.13;2.85;;;20.60;99.90;;;;;;4935179;29;20213;-72
2022/05/07 16:49:39;;;;;;;5.33;2.50;;;20.60;99.90;;;;;;4934905;29;20225;-72
2022/05/07 16:52:07;;;;;;;5.03;2.40;;;20.50;99.90;;;;;;4935178;29;20221;-72
2022/05/07 16:54:34;;;;;;;3.72;2.15;;;20.50;99.90;;;;;;4934318;29;20209;-72
2022/05/07 16:57:00;;;;;;;4.70;2.40;;;20.30;99.90;;;;;;4938251;29;20232;-72
2022/05/07 16:59:27;;;;;;;4.65;1.95;;;20.30;99.90;;;;;;4937544;29;20225;-72
2022/05/07 17:01:54;;;;;;;6.47;2.07;;;20.30;99.90;;;;;;4938215;29;20224;-72
2022/05/07 17:04:24;;;;;;;4.30;2.07;;;20.20;99.90;;;;;;4938231;29;20211;-71
2022/05/07 17:06:51;;;;;;;3.57;2.20;;;20.10;99.90;;;;;;4943687;29;20219;-71
2022/05/07 17:09:18;;;;;;;3.60;1.80;;;20.10;99.90;;;;;;4937856;29;20304;-72
2022/05/07 17:11:45;;;;;;;3.57;1.97;;;19.90;99.90;;;;;;4938191;29;20643;-72
2022/05/07 17:14:11;;;;;;;3.97;2.03;;;19.90;99.90;;;;;;4940895;29;20208;-72
2022/05/07 17:16:38;;;;;;;3.65;1.90;;;19.90;99.90;;;;;;4956394;28;20586;-72
2022/05/07 17:19:06;;;;;;;4.60;2.10;;;19.90;99.90;;;;;;4956044;28;20220;-73
2022/05/07 17:21:35;;;;;;;3.10;1.97;;;19.90;99.90;;;;;;4956229;28;20689;-73
2022/05/07 17:24:02;;;;;;;4.27;1.80;;;20.00;99.90;;;;;;4956491;28;20216;-72
2022/05/07 17:26:29;;;;;;;6.37;2.07;;;19.90;99.90;;;;;;4956594;28;20567;-73
2022/05/07 17:28:55;;;;;;;3.20;2.00;;;19.90;99.90;;;;;;4956499;28;20250;-71
2022/05/07 17:31:22;;;;;;;4.03;1.80;;;19.80;99.90;;;;;;4941358;28;20205;-71
2022/05/07 17:33:49;;;;;;;5.37;2.10;;;19.80;99.90;;;;;;4937317;29;20212;-71
2022/05/07 17:36:16;;;;;;;3.43;1.90;;;19.70;99.90;;;;;;4936590;29;20700;-72
2022/05/07 17:38:44;;;;;;;3.23;1.60;;;19.60;99.90;;;;;;4937325;29;20227;-71
2022/05/07 17:41:11;;;;;;;4.20;1.67;;;19.50;99.90;;;;;;4937787;29;20213;-71
2022/05/07 17:43:38;;;;;;;2.90;1.57;;;19.50;99.90;;;;;;4937085;29;20212;-72
2022/05/07 17:46:04;;;;;;;3.23;1.50;;;19.30;99.90;;;;;;4937283;29;20216;-72
2022/05/07 17:51:16;;;;;;;4.17;1.60;;;19.30;99.90;;;;;;4937300;29;20928;-71
2022/05/07 17:53:45;;;;;;;3.77;1.83;;;19.30;99.90;;;;;;4936304;29;20213;-71
2022/05/07 17:56:12;;;;;;;4.03;1.97;;;19.40;99.90;;;;;;4937154;29;20240;-71
2022/05/07 17:58:38;;;;;;;4.33;2.10;;;19.40;99.90;;;;;;4936683;29;20204;-71
2022/05/07 18:01:05;;;;;;;4.43;2.15;;;19.40;99.90;;;;;;4941074;29;20668;-71
2022/05/07 18:03:32;;;;;;;6.10;3.77;;;19.40;99.90;;;;;;4947602;29;20200;-71
2022/05/07 18:06:00;;;;;;;4.50;2.87;;;19.30;99.90;;;;;;4948453;29;20591;-71
2022/05/07 18:08:28;;;;;;;4.80;2.80;;;19.20;99.90;;;;;;4948771;28;20583;-71
2022/05/07 18:10:56;;;;;;;5.73;2.80;;;19.00;99.90;;;;;;4949049;29;20238;-71
2022/05/07 18:13:23;;;;;;;8.13;3.10;;;19.00;99.90;;;;;;4950687;28;20200;-71
2022/05/07 18:15:50;;;;;;;6.07;3.27;;;19.00;99.90;;;;;;4955223;28;20212;-71
2022/05/07 18:18:17;;;;;;;5.10;2.93;;;19.00;99.90;;;;;;4955655;28;20212;-72
2022/05/07 18:20:46;;;;;;;5.80;2.70;;;19.00;99.90;;;;;;4955574;28;20232;-71
2022/05/07 18:23:12;;;;;;;6.47;2.97;;;19.00;99.90;;;;;;4955329;28;20294;-72
2022/05/07 18:25:39;;;;;;;8.30;3.37;;;18.90;99.90;;;;;;4955519;28;20806;-71
2022/05/07 18:28:08;;;;;;;6.50;2.87;;;18.90;99.90;;;;;;4956285;28;20222;-71
2022/05/07 18:30:34;;;;;;;5.90;3.30;;;19.00;99.90;;;;;;4947525;28;20225;-71
2022/05/07 18:33:02;;;;;;;5.07;2.93;;;18.90;99.90;;;;;;4936859;29;20217;-71
2022/05/07 18:35:29;;;;;;;5.67;3.10;;;18.80;99.90;;;;;;4935908;29;20259;-71
2022/05/07 18:43:27;;;;;;;6.00;2.60;;;18.70;99.90;;;;;;4936785;29;20746;-71
2022/05/07 18:45:56;;;;;;;5.07;2.77;;;18.60;99.90;;;;;;4940747;29;20212;-71
2022/05/07 18:48:23;;;;;;;5.23;3.00;;;18.60;99.90;;;;;;4951373;29;20300;-71
2022/05/07 18:50:50;;;;;;;4.83;2.83;;;18.60;99.90;;;;;;4949821;28;20232;-71
2022/05/07 18:53:17;;;;;;;4.83;2.57;;;18.50;99.90;;;;;;4950346;28;20223;-71
2022/05/07 18:58:28;;;;;;;4.87;2.60;;;18.40;99.90;;;;;;4932870;28;20211;-72
2022/05/07 19:00:58;;;;;;;6.97;3.63;;;18.40;99.90;;;;;;4952570;29;20243;-72
2022/05/07 19:03:25;;;;;;;9.13;3.20;;;18.50;99.90;;;;;;4948511;29;20209;-71
2022/05/07 19:05:54;;;;;;;4.10;2.40;;;18.40;99.90;;;;;;4950631;28;20212;-71
2022/05/07 19:08:21;;;;;;;4.77;2.47;;;18.30;99.90;;;;;;4951414;28;20219;-71
2022/05/07 19:10:49;;;;;;;4.10;2.57;;;18.10;99.90;;;;;;4954417;28;20604;-72
2022/05/07 19:13:18;;;;;;;7.27;2.70;;;18.00;99.90;;;;;;4948881;28;20564;-72
2022/05/07 19:15:47;;;;;;;5.63;2.40;;;17.90;99.90;;;;;;4945850;29;20216;-72
2022/05/07 19:18:14;;;;;;;6.67;2.67;;;17.80;99.90;;;;;;4948995;28;20235;-72
2022/05/07 19:20:41;;;;;;;5.80;3.00;;;17.80;99.90;;;;;;4948655;28;20232;-72
2022/05/07 19:23:08;;;;;;;3.93;2.30;;;17.70;99.90;;;;;;4953512;28;20215;-71
2022/05/07 19:25:36;;;;;;;5.80;2.80;;;17.50;99.90;;;;;;4948834;28;20628;-71
2022/05/07 19:28:04;;;;;;;4.37;2.37;;;17.50;99.90;;;;;;4949872;28;20294;-71
2022/05/07 19:30:31;;;;;;;6.17;2.83;;;17.50;99.90;;;;;;4944607;28;20283;-70
2022/05/07 19:32:59;;;;;;;4.77;2.63;;;17.50;99.90;;;;;;4947564;29;20221;-71
2022/05/07 19:35:26;;;;;;;4.53;2.60;;;17.40;99.90;;;;;;4951663;28;20219;-71
2022/05/07 19:37:53;;;;;;;7.97;3.20;;;17.30;99.90;;;;;;4945523;28;20240;-71
2022/05/07 19:40:21;;;;;;;5.27;3.00;;;17.10;99.90;;;;;;4944226;28;20319;-71
2022/05/07 19:42:47;;;;;;;4.00;2.70;;;17.00;99.90;;;;;;4943942;29;20267;-71
2022/05/07 19:45:15;;;;;;;6.23;3.23;;;16.80;99.90;;;;;;4946369;28;20215;-72
2022/05/07 19:47:42;;;;;;;8.37;3.10;;;16.90;99.90;;;;;;4944031;29;20236;-72
2022/05/07 19:50:11;;;;;;;5.03;3.00;;;16.80;99.90;;;;;;4943234;28;20229;-72
2022/05/07 19:52:38;;;;;;;6.20;3.20;;;16.90;99.90;;;;;;4944736;28;20607;-72
2022/05/07 19:55:06;;;;;;;5.70;3.30;;;16.80;99.90;;;;;;4939763;29;20216;-71
2022/05/07 19:57:33;;;;;;;6.73;3.27;;;16.70;99.90;;;;;;4944555;29;20329;-71
2022/05/07 20:00:02;;;;;;;6.60;3.37;;;16.70;99.90;;;;;;4941539;28;20623;-72
2022/05/07 20:02:29;;;;;;;8.20;3.53;;;16.60;99.90;;;;;;4945529;29;20680;-71
2022/05/07 20:04:56;;;;;;;5.80;2.80;;;16.50;99.90;;;;;;4948729;29;20548;-71
2022/05/07 20:07:25;;;;;;;6.47;3.40;;;16.50;99.90;;;;;;4945483;29;20204;-70
2022/05/07 20:09:51;;;;;;;8.70;3.60;;;16.30;99.90;;;;;;4935848;28;20315;-72
2022/05/07 20:12:22;;;;;;;6.27;3.30;;;16.20;99.90;;;;;;4945630;29;20208;-71
2022/05/07 20:14:48;;;;;;;6.90;3.47;;;16.20;99.90;;;;;;4948807;29;20286;-72
2022/05/07 20:17:15;;;;;;;5.63;3.10;;;16.00;99.90;;;;;;4941924;29;20251;-72
2022/05/07 20:19:42;;;;;;;6.80;4.07;;;16.00;99.90;;;;;;4950654;28;20239;-71
2022/05/07 20:22:10;;;;;;;7.37;3.80;;;15.90;99.90;;;;;;4949533;29;20216;-72
2022/05/07 20:24:39;;;;;;;7.23;3.80;;;15.80;99.90;;;;;;4942477;29;20213;-71
2022/05/07 20:27:08;;;;;;;7.80;3.97;;;15.70;99.90;;;;;;4944191;28;20214;-71
2022/05/07 20:29:35;;;;;;;8.33;3.67;;;15.80;99.90;;;;;;4948562;28;20644;-72
2022/05/07 20:32:02;;;;;;;8.00;3.93;;;15.60;99.90;;;;;;4940880;28;20260;-71
2022/05/07 20:34:30;;;;;;;10.13;4.20;;;15.50;99.90;;;;;;4955923;29;20208;-72
2022/05/07 20:36:57;;;;;;;9.40;4.37;;;15.60;99.90;;;;;;4942841;29;20583;-72
2022/05/07 20:39:25;;;;;;;11.60;4.37;;;15.50;99.90;;;;;;4957034;28;20259;-72
2022/05/07 20:41:53;;;;;;;6.60;3.87;;;15.50;99.90;;;;;;4956683;28;20236;-72
2022/05/07 20:47:05;;;;;;;7.90;3.67;;;15.30;99.90;;;;;;4954559;29;20631;-72
2022/05/07 20:49:32;;;;;;;7.07;3.90;;;15.20;99.90;;;;;;4955540;28;20232;-72
2022/05/07 20:52:00;;;;;;;10.53;4.20;;;15.20;99.90;;;;;;4955122;28;20218;-72
2022/05/07 20:54:27;;;;;;;9.30;4.17;;;15.20;99.90;;;;;;4950949;29;20663;-72
2022/05/07 20:56:56;;;;;;;9.17;3.80;;;15.30;99.90;;;;;;4956106;28;20236;-72
2022/05/07 20:59:23;;;;;;;8.03;4.27;;;15.20;99.90;;;;;;4956108;28;20224;-72
2022/05/07 21:01:52;;;;;;;9.27;4.20;;;15.20;99.90;;;;;;4951528;28;20286;-72
2022/05/07 21:04:21;;;;;;;10.00;4.60;;;15.20;99.90;;;;;;4935654;29;20731;-71
2022/05/07 21:06:49;;;;;;;9.87;4.33;;;15.10;99.90;;;;;;4936374;29;20223;-71
2022/05/07 21:09:16;;;;;;;6.93;4.20;;;15.00;99.90;;;;;;4936218;29;20323;-71
2022/05/07 21:11:45;;;;;;;9.37;4.67;;;14.90;99.90;;;;;;4935866;29;20216;-72
2022/05/07 21:14:13;;;;;;;9.50;4.93;;;14.90;99.90;;;;;;4936301;29;20216;-71
2022/05/07 21:16:41;;;;;;;10.53;4.30;;;14.90;99.90;;;;;;4936121;29;20212;-71
2022/05/07 21:19:08;;;;;;;8.47;4.13;;;14.90;99.90;;;;;;4936133;29;20228;-72
2022/05/07 21:21:36;;;;;;;8.97;4.60;;;14.80;99.90;;;;;;4935678;29;20295;-71
2022/05/07 21:24:03;;;;;;;9.47;5.00;;;14.80;99.90;;;;;;4935797;29;20213;-71
2022/05/07 21:26:32;;;;;;;9.70;4.07;;;14.80;99.90;;;;;;4935536;29;20205;-72
2022/05/07 21:28:59;;;;;;;8.67;4.47;;;14.70;99.90;;;;;;4934692;29;20233;-72
2022/05/07 21:31:27;;;;;;;9.83;5.03;;;14.60;99.90;;;;;;4935311;29;20236;-71
2022/05/07 21:33:54;;;;;;;9.23;4.13;;;14.70;99.90;;;;;;4935848;29;20212;-72
2022/05/07 21:36:22;;;;;;;10.47;4.40;;;14.80;99.90;;;;;;4935585;29;20212;-72
2022/05/07 21:38:49;;;;;;;8.90;4.53;;;14.70;99.90;;;;;;4934918;29;20232;-72
2022/05/07 21:41:17;;;;;;;9.33;4.70;;;14.70;99.90;;;;;;4934867;29;20259;-72
2022/05/07 21:43:45;;;;;;;9.87;5.10;;;14.60;99.90;;;;;;4935554;29;20208;-72
2022/05/07 21:46:12;;;;;;;9.93;5.20;;;14.60;99.90;;;;;;4936569;29;20743;-71
2022/05/07 21:48:40;;;;;;;9.50;5.03;;;14.50;99.90;;;;;;4939603;28;20358;-72
2022/05/07 21:51:30;;;;;;;10.17;5.03;;;14.50;99.90;;;;;;4934122;29;20209;-72
2022/05/07 21:53:58;;;;;;;10.30;5.50;;;14.40;99.90;;;;;;4934907;29;20216;-72
2022/05/07 21:56:28;;;;;;;10.47;4.73;;;14.40;99.90;;;;;;4935267;29;20575;-72
2022/05/07 21:58:55;;;;;;;11.60;5.40;;;14.40;99.90;;;;;;4934902;29;21126;-72
2022/05/07 22:01:22;;;;;;;11.70;5.70;;;14.30;99.90;;;;;;4935357;29;20244;-72
2022/05/07 22:03:51;;;;;;;13.27;6.13;;;14.20;99.90;;;;;;4935006;29;20743;-72
2022/05/07 22:06:18;;;;;;;11.80;5.53;;;14.20;99.90;;;;;;4934824;29;20205;-72
2022/05/07 22:08:45;;;;;;;10.90;5.73;;;14.10;99.90;;;;;;4935338;29;20204;-72
2022/05/07 22:11:12;;;;;;;13.50;6.07;;;14.00;99.90;;;;;;4935362;29;20208;-71
2022/05/07 22:13:40;;;;;;;12.30;5.70;;;14.00;99.90;;;;;;4935485;29;20296;-71
2022/05/07 22:16:07;;;;;;;12.03;6.03;;;13.90;99.90;;;;;;4934522;29;20205;-71
2022/05/07 22:18:33;;;;;;;12.13;6.27;;;14.00;99.90;;;;;;4934599;29;20243;-71
2022/05/07 22:21:02;;;;;;;11.73;6.53;;;14.00;99.90;;;;;;4935135;29;20215;-71
2022/05/07 22:23:29;;;;;;;11.60;5.93;;;14.10;99.90;;;;;;4934803;29;20205;-72
2022/05/07 22:25:56;;;;;;;15.80;6.83;;;14.20;99.90;;;;;;4934983;29;20303;-71
2022/05/07 22:28:23;;;;;;;17.03;6.73;;;14.00;99.90;;;;;;4934800;29;20208;-71
2022/05/07 22:30:50;;;;;;;15.07;6.40;;;13.80;99.90;;;;;;4934836;29;20229;-71
2022/05/07 22:33:17;;;;;;;14.70;7.20;;;13.80;99.90;;;;;;4934858;29;20213;-71
2022/05/07 22:35:43;;;;;;;16.97;7.80;;;13.80;99.90;;;;;;4934452;29;20219;-71
2022/05/07 22:38:11;;;;;;;15.83;6.80;;;13.70;99.90;;;;;;4934952;29;20708;-72
2022/05/07 22:40:38;;;;;;;15.87;7.63;;;13.70;99.90;;;;;;4935284;29;20232;-71
2022/05/07 22:43:05;;;;;;;14.43;6.33;;;13.70;99.90;;;;;;4935659;29;20215;-71
2022/05/07 22:45:32;;;;;;;16.00;7.13;;;13.60;99.90;;;;;;4935201;29;20204;-71
2022/05/07 22:47:59;;;;;;;14.53;7.17;;;13.70;99.90;;;;;;4938701;29;20200;-71
2022/05/07 22:50:25;;;;;;;15.97;7.13;;;13.70;99.90;;;;;;4937295;29;20229;-71
2022/05/07 22:52:52;;;;;;;16.47;7.40;;;13.70;99.90;;;;;;4934472;29;20702;-71
2022/05/07 22:55:20;;;;;;;17.00;7.43;;;13.60;99.90;;;;;;4935044;29;20212;-72
2022/05/07 22:57:47;;;;;;;13.37;6.63;;;13.60;99.90;;;;;;4934794;29;20715;-72
2022/05/07 23:00:15;;;;;;;15.93;7.10;;;13.50;99.90;;;;;;4934889;29;20224;-71
2022/05/07 23:02:42;;;;;;;16.43;7.33;;;13.50;99.90;;;;;;4935765;29;20216;-72
2022/05/07 23:05:09;;;;;;;15.87;7.17;;;13.50;99.90;;;;;;4936060;29;20229;-72
2022/05/07 23:07:36;;;;;;;16.90;7.87;;;13.50;99.90;;;;;;4935923;29;20208;-72
2022/05/07 23:10:03;;;;;;;17.27;7.03;;;13.50;99.90;;;;;;4936072;29;20228;-72
2022/05/07 23:12:31;;;;;;;13.20;7.23;;;13.50;99.90;;;;;;4935867;29;20212;-72
2022/05/07 23:14:58;;;;;;;16.63;7.07;;;13.50;99.90;;;;;;4935668;29;20217;-72
2022/05/07 23:17:25;;;;;;;18.97;7.30;;;13.50;99.90;;;;;;4935743;29;20209;-71
2022/05/07 23:19:52;;;;;;;11.87;6.33;;;13.50;99.90;;;;;;4935530;29;20239;-72
2022/05/07 23:22:18;;;;;;;17.50;7.13;;;13.50;99.90;;;;;;4935259;29;20215;-71
2022/05/07 23:24:45;;;;;;;16.97;7.33;;;13.40;99.90;;;;;;4935815;29;20218;-71
2022/05/07 23:27:12;;;;;;;14.40;6.93;;;13.50;99.90;;;;;;4934621;29;20240;-71
2022/05/07 23:29:40;;;;;;;17.87;7.67;;;13.60;99.90;;;;;;4935661;29;20236;-71
2022/05/07 23:32:08;;;;;;;19.73;8.07;;;13.50;99.90;;;;;;4934920;29;20573;-72
2022/05/07 23:34:35;;;;;;;17.20;7.53;;;13.50;99.90;;;;;;4935082;29;20219;-71
2022/05/07 23:37:01;;;;;;;18.77;7.83;;;13.50;99.90;;;;;;4935711;29;20235;-71
2022/05/07 23:39:28;;;;;;;21.13;8.37;;;13.40;99.90;;;;;;4935294;29;20269;-71
2022/05/07 23:41:55;;;;;;;18.90;7.40;;;13.30;99.90;;;;;;4934407;29;20243;-72
2022/05/07 23:44:22;;;;;;;17.70;7.70;;;13.30;99.90;;;;;;4935501;29;20660;-71
2022/05/07 23:46:50;;;;;;;20.13;7.27;;;13.40;99.90;;;;;;4934834;29;20219;-72
2022/05/07 23:49:17;;;;;;;15.97;7.20;;;13.40;99.90;;;;;;4938202;29;20288;-71
2022/05/07 23:51:45;;;;;;;16.63;7.77;;;13.30;99.90;;;;;;4937985;29;20675;-71
2022/05/07 23:54:12;;;;;;;19.60;7.63;;;13.30;99.90;;;;;;4934333;29;20268;-71
2022/05/07 23:56:39;;;;;;;14.77;7.00;;;13.30;99.90;;;;;;4933528;29;20208;-72
2022/05/07 23:59:06;;;;;;;18.53;7.43;;;13.30;99.90;;;;;;4934451;29;20241;-72
